Arenas De San Pedro, Spain
Current Conditions -  °F | °C
As of 8:00 PM on Thursday 27 Nov 2014 (Local Time) from LESA Reporting Station
Scattered Clouds Scattered Clouds  
Wind Chill: 46°   Ceiling: Unl
Heat Index: 46°   Visibility: 6mi
Dew Point: 43°   Wind: 0mph
Humidity: 87%   Direction: NA
Pressure: 29.23"   Gusts: NA
Location:  40.21°N, 5.09°W
Report Text: LESA 271900Z 00000KT 9999 FEW032 SCT040 08/06 Q0990
Loading
Personal Weather Stations






























Interactive Weather Map New forecast layout! Learn more

10-Day Weather Forecast

Advertisements
Track Severe Weather on mobile